createdAt,value
2017-02-23T00:00:00.315Z,997.82
2017-02-23T00:00:41.016Z,997.81
2017-02-23T00:01:21.615Z,997.84
2017-02-23T00:02:02.324Z,997.78
2017-02-23T00:02:43.024Z,997.8
2017-02-23T00:03:23.589Z,997.81
2017-02-23T00:04:04.232Z,997.77
2017-02-23T00:04:44.828Z,997.78
2017-02-23T00:05:25.453Z,997.8
2017-02-23T00:06:06.087Z,997.8
2017-02-23T00:06:46.748Z,997.8
2017-02-23T00:07:27.440Z,997.77
2017-02-23T00:08:08.057Z,997.79
2017-02-23T00:08:48.702Z,997.78
2017-02-23T00:09:29.319Z,997.78
2017-02-23T00:10:10.046Z,997.8
2017-02-23T00:10:50.691Z,997.78
2017-02-23T00:11:31.329Z,997.81
2017-02-23T00:12:11.983Z,997.79
2017-02-23T00:12:52.686Z,997.77
2017-02-23T00:13:33.316Z,997.79
2017-02-23T00:14:13.947Z,997.78
2017-02-23T00:14:54.569Z,997.76
2017-02-23T00:15:35.252Z,997.78
2017-02-23T00:16:15.992Z,997.74
2017-02-23T00:16:56.645Z,997.77
2017-02-23T00:17:37.313Z,997.75
2017-02-23T00:18:17.934Z,997.68
2017-02-23T00:18:58.603Z,997.71
2017-02-23T00:19:39.314Z,997.74
2017-02-23T00:20:19.943Z,997.74
2017-02-23T00:21:00.615Z,997.72
2017-02-23T00:21:41.288Z,997.75
2017-02-23T00:22:21.926Z,997.71
2017-02-23T00:23:02.519Z,997.74
2017-02-23T00:23:43.124Z,997.72
2017-02-23T00:24:23.770Z,997.68
2017-02-23T00:25:04.419Z,997.67
2017-02-23T00:25:45.071Z,997.73
2017-02-23T00:26:25.722Z,997.71
2017-02-23T00:27:06.348Z,997.71
2017-02-23T00:27:46.989Z,997.7
2017-02-23T00:28:27.611Z,997.71
2017-02-23T00:29:08.247Z,997.72
2017-02-23T00:29:48.883Z,997.73
2017-02-23T00:30:29.562Z,997.69
2017-02-23T00:31:10.188Z,997.71
2017-02-23T00:31:50.860Z,997.7
2017-02-23T00:32:31.501Z,997.73
2017-02-23T00:33:12.156Z,997.72
2017-02-23T00:33:52.827Z,997.76
2017-02-23T00:34:33.439Z,997.75
2017-02-23T00:35:14.063Z,997.76
2017-02-23T00:35:54.635Z,997.76
2017-02-23T00:36:35.232Z,997.75
2017-02-23T00:37:15.821Z,997.74
2017-02-23T00:37:56.511Z,997.75
2017-02-23T00:38:37.169Z,997.71
2017-02-23T00:39:17.812Z,997.73
2017-02-23T00:39:58.512Z,997.69
2017-02-23T00:40:39.167Z,997.71
2017-02-23T00:41:19.944Z,997.72
2017-02-23T00:42:00.619Z,997.74
2017-02-23T00:42:41.253Z,997.76
2017-02-23T00:43:21.937Z,997.71
2017-02-23T00:44:02.516Z,997.76
2017-02-23T00:44:43.119Z,997.73
2017-02-23T00:45:23.767Z,997.77
2017-02-23T00:46:04.383Z,997.77
2017-02-23T00:46:44.956Z,997.74
2017-02-23T00:47:25.619Z,997.75
2017-02-23T00:48:06.233Z,997.73
2017-02-23T00:48:46.932Z,997.68
2017-02-23T00:49:27.574Z,997.68
2017-02-23T00:50:08.227Z,997.66
2017-02-23T00:50:48.859Z,997.69
2017-02-23T00:51:29.541Z,997.66
2017-02-23T00:52:10.165Z,997.69
2017-02-23T00:52:50.823Z,997.72
2017-02-23T00:53:31.474Z,997.7
2017-02-23T00:54:12.157Z,997.71
2017-02-23T00:54:52.794Z,997.7
2017-02-23T00:55:33.413Z,997.67
2017-02-23T00:56:14.071Z,997.69
2017-02-23T00:56:54.679Z,997.64
2017-02-23T00:57:35.322Z,997.59
2017-02-23T00:58:15.961Z,997.6
2017-02-23T00:58:56.575Z,997.57
2017-02-23T00:59:37.278Z,997.59
2017-02-23T01:00:18.065Z,997.58
2017-02-23T01:00:58.675Z,997.58
2017-02-23T01:01:39.333Z,997.55
2017-02-23T01:02:19.926Z,997.57
2017-02-23T01:03:00.532Z,997.57
2017-02-23T01:03:41.140Z,997.59
2017-02-23T01:04:21.883Z,997.58
2017-02-23T01:05:02.552Z,997.59
2017-02-23T01:05:43.143Z,997.61
2017-02-23T01:06:23.780Z,997.66
2017-02-23T01:07:04.457Z,997.62
2017-02-23T01:07:45.136Z,997.64
2017-02-23T01:08:25.739Z,997.65
2017-02-23T01:09:06.418Z,997.62
2017-02-23T01:09:47.060Z,997.6
2017-02-23T01:10:27.672Z,997.6
2017-02-23T01:11:08.363Z,997.58
2017-02-23T01:11:49.022Z,997.58
2017-02-23T01:12:29.649Z,997.59
2017-02-23T01:13:10.310Z,997.61
2017-02-23T01:13:50.972Z,997.56
2017-02-23T01:14:31.631Z,997.54
2017-02-23T01:15:12.274Z,997.53
2017-02-23T01:15:52.966Z,997.53
2017-02-23T01:16:33.663Z,997.55
2017-02-23T01:17:14.260Z,997.53
2017-02-23T01:17:54.885Z,997.55
2017-02-23T01:18:35.519Z,997.54
2017-02-23T01:19:16.199Z,997.53
2017-02-23T01:19:56.849Z,997.54
2017-02-23T01:20:37.465Z,997.51
2017-02-23T01:21:18.057Z,997.55
2017-02-23T01:21:58.718Z,997.53
2017-02-23T01:22:39.343Z,997.55
2017-02-23T01:23:19.977Z,997.52
2017-02-23T01:24:00.690Z,997.51
2017-02-23T01:24:41.324Z,997.53
2017-02-23T01:25:22.018Z,997.49
2017-02-23T01:26:02.690Z,997.44
2017-02-23T01:26:43.318Z,997.46
2017-02-23T01:27:23.995Z,997.48
2017-02-23T01:28:04.668Z,997.48
2017-02-23T01:28:45.329Z,997.47
2017-02-23T01:29:25.978Z,997.49
2017-02-23T01:30:06.582Z,997.44
2017-02-23T01:30:47.202Z,997.47
2017-02-23T01:31:27.822Z,997.46
2017-02-23T01:32:08.481Z,997.45
2017-02-23T01:32:49.122Z,997.41
2017-02-23T01:33:29.792Z,997.42
2017-02-23T01:34:10.369Z,997.41
2017-02-23T01:34:51.062Z,997.45
2017-02-23T01:35:31.663Z,997.4
2017-02-23T01:36:12.414Z,997.44
2017-02-23T01:36:53.134Z,997.37
2017-02-23T01:37:33.714Z,997.39
2017-02-23T01:38:14.376Z,997.39
2017-02-23T01:38:55.058Z,997.41
2017-02-23T01:39:35.693Z,997.42
2017-02-23T01:40:16.311Z,997.39
2017-02-23T01:40:56.954Z,997.4
2017-02-23T01:41:37.621Z,997.41
2017-02-23T01:42:18.277Z,997.39
2017-02-23T01:42:58.973Z,997.39
2017-02-23T01:43:39.607Z,997.38
2017-02-23T01:44:20.247Z,997.39
2017-02-23T01:45:00.924Z,997.38
2017-02-23T01:45:41.558Z,997.38
2017-02-23T01:46:22.180Z,997.37
2017-02-23T01:47:02.770Z,997.35
2017-02-23T01:47:43.464Z,997.32
2017-02-23T01:48:24.115Z,997.3
2017-02-23T01:49:04.752Z,997.27
2017-02-23T01:49:45.376Z,997.26
2017-02-23T01:50:26.013Z,997.25
2017-02-23T01:51:06.625Z,997.26
2017-02-23T01:51:47.244Z,997.3
2017-02-23T01:52:27.855Z,997.24
2017-02-23T01:53:08.464Z,997.24
2017-02-23T01:53:49.080Z,997.21
2017-02-23T01:54:29.798Z,997.15
2017-02-23T01:55:10.412Z,997.17
2017-02-23T01:55:51.078Z,997.17
2017-02-23T01:56:31.731Z,997.18
2017-02-23T01:57:12.366Z,997.13
2017-02-23T01:57:53.007Z,997.14
2017-02-23T01:58:33.705Z,997.14
2017-02-23T02:03:56.060Z,997.11
2017-02-23T02:04:36.712Z,997.05
2017-02-23T02:05:17.364Z,997.07
2017-02-23T02:05:58.012Z,997.08
2017-02-23T02:06:38.663Z,997.1
2017-02-23T02:07:20.352Z,997.06
2017-02-23T02:08:01.001Z,997.04
2017-02-23T02:08:42.677Z,997.05
2017-02-23T02:09:25.380Z,997.05
2017-02-23T02:10:06.034Z,997.08
2017-02-23T02:10:46.689Z,997.04
2017-02-23T02:11:27.338Z,997.02
2017-02-23T02:12:07.992Z,997
2017-02-23T02:12:48.645Z,996.99
2017-02-23T02:13:29.300Z,997
2017-02-23T02:14:09.953Z,996.96
2017-02-23T02:14:50.603Z,996.95
2017-02-23T02:15:31.260Z,996.96
2017-02-23T02:16:12.019Z,996.98
2017-02-23T02:16:52.664Z,996.98
2017-02-23T02:17:33.319Z,996.94
2017-02-23T02:18:13.969Z,996.94
2017-02-23T02:18:54.549Z,996.95
2017-02-23T02:19:35.170Z,996.94
2017-02-23T02:20:15.826Z,996.93
2017-02-23T02:20:56.396Z,996.91
2017-02-23T02:21:37.039Z,996.96
2017-02-23T02:22:17.685Z,996.94
2017-02-23T02:22:58.262Z,996.93
2017-02-23T02:23:38.892Z,996.93
2017-02-23T02:24:19.540Z,996.92
2017-02-23T02:25:00.112Z,996.89
2017-02-23T02:25:40.748Z,996.86
2017-02-23T02:26:21.400Z,996.86
2017-02-23T02:27:01.975Z,996.85
2017-02-23T02:27:42.605Z,996.84
2017-02-23T02:28:23.253Z,996.8
2017-02-23T02:29:03.905Z,996.85
2017-02-23T02:29:44.560Z,996.76
2017-02-23T02:30:25.212Z,996.77
2017-02-23T02:31:05.865Z,996.72
2017-02-23T02:31:46.516Z,996.74
2017-02-23T02:32:27.169Z,996.72
2017-02-23T02:33:07.825Z,996.73
2017-02-23T02:33:48.393Z,996.73
2017-02-23T02:34:29.075Z,996.74
2017-02-23T02:35:09.789Z,996.67
2017-02-23T02:35:50.438Z,996.72
2017-02-23T02:36:31.011Z,996.7
2017-02-23T02:37:11.687Z,996.7
2017-02-23T02:37:52.405Z,996.69
2017-02-23T02:38:33.049Z,996.66
2017-02-23T02:39:13.678Z,996.71
2017-02-23T02:39:54.355Z,996.67
2017-02-23T02:40:35.016Z,996.61
2017-02-23T02:41:15.660Z,996.61
2017-02-23T02:41:56.319Z,996.58
2017-02-23T02:42:36.967Z,996.6
2017-02-23T02:43:17.622Z,996.6
2017-02-23T02:43:58.273Z,996.61
2017-02-23T02:44:38.930Z,996.59
2017-02-23T02:45:19.580Z,996.65
2017-02-23T02:46:00.231Z,996.55
2017-02-23T02:46:40.887Z,996.52
2017-02-23T02:47:21.539Z,996.56
2017-02-23T02:48:02.193Z,996.54
2017-02-23T02:48:42.848Z,996.55
2017-02-23T02:49:23.499Z,996.59
2017-02-23T02:50:04.150Z,996.53
2017-02-23T02:50:44.806Z,996.55
2017-02-23T02:51:25.459Z,996.54
2017-02-23T02:52:06.108Z,996.54
2017-02-23T02:52:46.760Z,996.5
2017-02-23T02:53:27.415Z,996.52
2017-02-23T02:54:07.991Z,996.51
2017-02-23T02:54:48.622Z,996.53
2017-02-23T02:55:29.271Z,996.5
2017-02-23T02:56:09.843Z,996.52
2017-02-23T02:56:50.469Z,996.51
2017-02-23T02:57:31.130Z,996.51
2017-02-23T02:58:11.699Z,996.49
2017-02-23T02:58:52.329Z,996.5
2017-02-23T02:59:32.981Z,996.47
2017-02-23T03:00:13.559Z,996.48
2017-02-23T03:00:54.240Z,996.45
2017-02-23T03:01:34.819Z,996.5
2017-02-23T03:02:15.488Z,996.46
2017-02-23T03:02:56.147Z,996.42
2017-02-23T03:03:36.719Z,996.42
2017-02-23T03:04:17.449Z,996.42
2017-02-23T03:04:58.102Z,996.43
2017-02-23T03:05:38.756Z,996.43
2017-02-23T03:06:19.410Z,996.39
2017-02-23T03:07:00.061Z,996.38
2017-02-23T03:07:40.717Z,996.39
2017-02-23T03:08:22.393Z,996.38
2017-02-23T03:09:03.043Z,996.37
2017-02-23T03:09:43.699Z,996.4
2017-02-23T03:10:24.328Z,996.39
2017-02-23T03:11:05.006Z,996.36
2017-02-23T03:11:45.653Z,996.39
2017-02-23T03:12:26.315Z,996.37
2017-02-23T03:13:06.961Z,996.37
2017-02-23T03:13:47.615Z,996.37
2017-02-23T03:14:28.287Z,996.38
2017-02-23T03:15:08.921Z,996.33
2017-02-23T03:15:49.573Z,996.32
2017-02-23T03:16:30.229Z,996.32
2017-02-23T03:17:10.879Z,996.32
2017-02-23T03:17:51.532Z,996.31
2017-02-23T03:18:32.187Z,996.35
2017-02-23T03:19:12.740Z,996.3
2017-02-23T03:19:53.454Z,996.31
2017-02-23T03:20:34.146Z,996.29
2017-02-23T03:21:14.799Z,996.27
2017-02-23T03:21:55.370Z,996.26
2017-02-23T03:22:36.058Z,996.25
2017-02-23T03:23:16.754Z,996.28
2017-02-23T03:23:57.411Z,996.26
2017-02-23T03:24:37.964Z,996.25
2017-02-23T03:25:18.577Z,996.24
2017-02-23T03:25:59.267Z,996.21
2017-02-23T03:26:39.923Z,996.21
2017-02-23T03:27:20.490Z,996.25
2017-02-23T03:28:01.192Z,996.22
2017-02-23T03:28:41.881Z,996.24
2017-02-23T03:29:22.537Z,996.2
2017-02-23T03:30:03.103Z,996.25
2017-02-23T03:30:43.807Z,996.19
2017-02-23T03:31:24.495Z,996.2
2017-02-23T03:32:05.148Z,996.19
2017-02-23T03:32:45.714Z,996.22
2017-02-23T03:33:26.413Z,996.14
2017-02-23T03:34:07.078Z,996.16
2017-02-23T03:34:47.634Z,996.16
2017-02-23T03:35:28.299Z,996.13
2017-02-23T03:36:08.965Z,996.14
2017-02-23T03:36:49.527Z,996.12
2017-02-23T03:37:30.171Z,996.13
2017-02-23T03:38:10.821Z,996.11
2017-02-23T03:38:51.382Z,996.1
2017-02-23T03:39:32.026Z,996.11
2017-02-23T03:40:12.677Z,996.1
2017-02-23T03:40:53.254Z,996.06
2017-02-23T03:41:33.947Z,996.07
2017-02-23T03:42:14.633Z,996.08
2017-02-23T03:42:55.288Z,996.06
2017-02-23T03:43:35.852Z,996.09
2017-02-23T03:44:16.586Z,996.06
2017-02-23T03:44:57.242Z,996.06
2017-02-23T03:45:37.898Z,996.06
2017-02-23T03:46:19.577Z,996.03
2017-02-23T03:47:00.332Z,995.98
2017-02-23T03:47:40.982Z,995.98
2017-02-23T03:48:21.636Z,996.03
2017-02-23T03:49:02.202Z,995.99
2017-02-23T03:49:43.905Z,996
2017-02-23T03:50:24.619Z,995.93
2017-02-23T03:51:06.296Z,995.96
2017-02-23T03:51:46.879Z,995.96
2017-02-23T03:52:27.548Z,995.94
2017-02-23T03:53:08.256Z,995.9
2017-02-23T03:53:48.908Z,995.92
2017-02-23T03:54:29.472Z,995.89
2017-02-23T03:55:10.113Z,995.87
2017-02-23T03:55:51.790Z,995.85
2017-02-23T03:56:32.356Z,995.87
2017-02-23T03:57:12.995Z,995.84
2017-02-23T03:57:53.649Z,995.81
2017-02-23T03:58:34.225Z,995.8
2017-02-23T03:59:16.890Z,995.79
2017-02-23T03:59:57.556Z,995.81
2017-02-23T04:00:38.118Z,995.79
2017-02-23T04:01:18.814Z,995.77
2017-02-23T04:02:05.457Z,995.75
2017-02-23T04:02:46.108Z,995.79
2017-02-23T04:03:26.663Z,995.82
2017-02-23T04:04:08.540Z,995.79
2017-02-23T04:04:49.194Z,995.77
2017-02-23T04:05:29.850Z,995.73
2017-02-23T04:06:10.500Z,995.74
2017-02-23T04:06:51.147Z,995.75
2017-02-23T04:07:32.829Z,995.74
2017-02-23T04:08:13.489Z,995.71
2017-02-23T04:08:54.130Z,995.69
2017-02-23T04:09:34.792Z,995.68
2017-02-23T04:10:15.443Z,995.68
2017-02-23T04:10:56.100Z,995.64
2017-02-23T04:11:36.743Z,995.66
2017-02-23T04:12:17.402Z,995.66
2017-02-23T04:12:58.051Z,995.64
2017-02-23T04:13:38.705Z,995.63
2017-02-23T04:14:19.357Z,995.63
2017-02-23T04:15:00.018Z,995.59
2017-02-23T04:15:59.339Z,995.63
2017-02-23T05:27:39.560Z,994.19
2017-02-23T05:28:25.108Z,994.18
2017-02-23T05:29:05.698Z,994.17
2017-02-23T05:29:59.316Z,994.16
2017-02-23T05:30:41.913Z,994.12
2017-02-23T05:31:22.489Z,994.08
2017-02-23T05:32:18.811Z,994.15
2017-02-23T05:32:59.444Z,994.13
2017-02-23T05:33:40.031Z,994.11
2017-02-23T05:34:21.680Z,994.08
2017-02-23T05:35:06.858Z,994.08
2017-02-23T05:35:58.383Z,994.02
2017-02-23T05:36:43.878Z,994.05
2017-02-23T05:41:57.562Z,993.96
2017-02-23T05:42:43.834Z,993.95
2017-02-23T05:43:24.487Z,994.04
2017-02-23T05:44:16.867Z,993.89
2017-02-23T05:44:57.468Z,993.91
2017-02-23T05:45:42.834Z,993.92
2017-02-23T05:46:28.274Z,993.89
2017-02-23T05:47:24.877Z,993.89
2017-02-23T05:53:02.335Z,993.89
2017-02-23T05:53:42.891Z,993.91
2017-02-23T05:54:23.534Z,993.74
2017-02-23T05:55:09.820Z,993.76
2017-02-23T05:55:50.474Z,993.69
2017-02-23T05:56:31.035Z,993.74
2017-02-23T05:57:11.617Z,993.71
2017-02-23T05:57:57.848Z,993.73
2017-02-23T05:58:44.041Z,993.7
2017-02-23T05:59:24.607Z,993.69
2017-02-23T06:00:05.301Z,993.68
2017-02-23T06:00:47.911Z,993.72
2017-02-23T06:01:29.461Z,993.74
2017-02-23T06:02:10.157Z,993.66
2017-02-23T06:02:51.010Z,993.68
2017-02-23T06:03:31.602Z,993.67
2017-02-23T06:04:17.964Z,993.71
2017-02-23T06:04:58.552Z,993.68
2017-02-23T06:05:39.175Z,993.71
2017-02-23T06:06:19.776Z,993.69
2017-02-23T06:07:01.350Z,993.62
2017-02-23T06:07:41.960Z,993.72
2017-02-23T06:08:23.631Z,993.57
2017-02-23T06:09:04.241Z,993.6
2017-02-23T06:09:46.859Z,993.61
2017-02-23T06:10:27.512Z,993.6
2017-02-23T06:11:14.034Z,993.64
2017-02-23T06:12:09.569Z,993.58
2017-02-23T06:12:56.005Z,993.57
2017-02-23T06:13:38.710Z,993.46
2017-02-23T06:14:19.364Z,993.5
2017-02-23T06:15:00.017Z,993.51
2017-02-23T06:15:52.553Z,993.49
2017-02-23T06:16:33.121Z,993.47
2017-02-23T06:17:20.536Z,993.46
2017-02-23T06:18:03.251Z,993.55
2017-02-23T06:18:43.867Z,993.46
2017-02-23T06:19:24.434Z,993.45
2017-02-23T06:20:05.159Z,993.41
2017-02-23T06:20:45.733Z,993.47
2017-02-23T06:21:26.703Z,993.43
2017-02-23T06:24:08.783Z,993.35
2017-02-23T06:24:49.310Z,993.38
2017-02-23T06:25:40.481Z,993.38
2017-02-23T06:26:21.327Z,993.36
2017-02-23T06:27:16.602Z,993.31
2017-02-23T06:27:57.164Z,993.34
2017-02-23T06:28:37.740Z,993.41
2017-02-23T06:29:20.545Z,993.39
2017-02-23T06:30:06.186Z,993.31
2017-02-23T06:30:46.726Z,993.34
2017-02-23T06:31:27.364Z,993.34
2017-02-23T06:32:09.095Z,993.35
2017-02-23T06:32:49.657Z,993.27
2017-02-23T06:33:30.241Z,993.33
2017-02-23T06:34:10.902Z,993.34
2017-02-23T06:34:51.492Z,993.32
2017-02-23T06:35:32.201Z,993.33
2017-02-23T06:36:17.726Z,993.3
2017-02-23T06:36:58.361Z,993.34
2017-02-23T06:37:41.050Z,993.38
2017-02-23T06:38:33.661Z,993.25
2017-02-23T06:39:14.241Z,993.36
2017-02-23T06:39:56.048Z,993.32
2017-02-23T06:40:49.650Z,993.31
2017-02-23T06:41:30.240Z,993.3
2017-02-23T06:42:25.569Z,993.39
2017-02-23T06:43:06.281Z,993.31
2017-02-23T06:43:46.920Z,993.29
2017-02-23T06:44:27.481Z,993.31
2017-02-23T06:45:10.165Z,993.3
2017-02-23T06:45:55.448Z,993.27
2017-02-23T06:46:37.162Z,993.28
2017-02-23T06:47:17.907Z,993.33
2017-02-23T06:47:58.494Z,993.23
2017-02-23T06:48:39.144Z,993.29
2017-02-23T06:49:19.799Z,993.29
2017-02-23T06:50:00.403Z,993.22
2017-02-23T06:50:47.022Z,993.34
2017-02-23T06:51:27.773Z,993.3
2017-02-23T06:52:09.382Z,993.18
2017-02-23T06:52:49.972Z,993.27
2017-02-23T06:53:41.497Z,993.32
2017-02-23T06:54:24.208Z,993.36
2017-02-23T06:55:10.463Z,993.26
2017-02-23T06:56:01.980Z,993.32
2017-02-23T06:56:42.576Z,993.33
2017-02-23T06:57:37.870Z,993.36
2017-02-23T06:58:24.415Z,993.32
2017-02-23T06:59:05.004Z,993.3
2017-02-23T06:59:45.665Z,993.33
2017-02-23T07:00:26.241Z,993.37
2017-02-23T07:01:06.811Z,993.34
2017-02-23T07:01:47.419Z,993.34
2017-02-23T07:02:28.074Z,993.36
2017-02-23T07:03:08.680Z,993.33
2017-02-23T07:03:49.378Z,993.42
2017-02-23T07:04:30.046Z,993.27
2017-02-23T07:05:10.799Z,993.37
2017-02-23T07:05:51.455Z,993.42
2017-02-23T07:06:33.121Z,993.35
2017-02-23T07:07:13.782Z,993.37
2017-02-23T07:08:00.166Z,993.32
2017-02-23T07:08:40.815Z,993.38
2017-02-23T07:09:21.344Z,993.35
2017-02-23T07:10:02.042Z,993.33
2017-02-23T07:10:43.690Z,993.31
2017-02-23T07:11:24.296Z,993.33
2017-02-23T07:12:05.074Z,993.37
2017-02-23T07:12:45.817Z,993.3
2017-02-23T07:13:26.420Z,993.28
2017-02-23T07:14:08.993Z,993.28
2017-02-23T07:14:49.656Z,993.26
2017-02-23T07:15:30.318Z,993.28
2017-02-23T07:16:10.974Z,993.27
2017-02-23T07:16:52.689Z,993.28
2017-02-23T07:17:35.388Z,993.25
2017-02-23T07:18:16.100Z,993.37
2017-02-23T07:18:56.858Z,993.29
2017-02-23T07:19:38.560Z,993.32
2017-02-23T07:20:20.319Z,993.26
2017-02-23T07:21:02.106Z,993.32
2017-02-23T07:21:43.795Z,993.34
2017-02-23T07:22:24.607Z,993.23
2017-02-23T07:23:06.342Z,993.3
2017-02-23T07:23:47.071Z,993.33
2017-02-23T07:24:27.716Z,993.29
2017-02-23T07:25:10.517Z,993.34
2017-02-23T07:25:52.293Z,993.3
2017-02-23T07:26:33.087Z,993.34
2017-02-23T07:27:13.727Z,993.31
2017-02-23T07:27:56.519Z,993.36
2017-02-23T07:28:37.268Z,993.27
2017-02-23T07:29:19.175Z,993.33
2017-02-23T07:29:59.953Z,993.32
2017-02-23T07:30:42.718Z,993.34
2017-02-23T07:31:23.550Z,993.27
2017-02-23T07:32:04.205Z,993.29
2017-02-23T07:32:45.031Z,993.32
2017-02-23T07:33:26.777Z,993.24
2017-02-23T07:34:08.438Z,993.27
2017-02-23T07:34:51.139Z,993.26
2017-02-23T07:35:36.682Z,993.21
2017-02-23T07:36:22.171Z,993.23
2017-02-23T07:37:02.803Z,993.23
2017-02-23T07:37:43.519Z,993.23
2017-02-23T07:38:24.220Z,993.26
2017-02-23T07:39:05.820Z,993.12
2017-02-23T07:39:46.632Z,993.09
2017-02-23T07:40:28.339Z,993.12
2017-02-23T07:41:14.622Z,993.02
2017-02-23T07:41:57.390Z,993.1
2017-02-23T07:42:42.740Z,993.09
2017-02-23T07:43:24.468Z,993.11
2017-02-23T07:44:05.203Z,993.03
2017-02-23T07:44:46.940Z,993.02
2017-02-23T07:45:29.677Z,993.14
2017-02-23T07:46:11.365Z,992.98
2017-02-23T07:46:53.062Z,993.03
2017-02-23T07:47:34.711Z,993.01
2017-02-23T07:48:20.203Z,992.97
2017-02-23T07:49:00.809Z,992.98
2017-02-23T07:49:41.497Z,992.81
2017-02-23T07:50:23.228Z,992.96
2017-02-23T07:51:03.992Z,992.96
2017-02-23T07:51:50.643Z,992.99
2017-02-23T07:52:31.363Z,992.91
2017-02-23T07:53:12.187Z,992.93
2017-02-23T07:53:57.607Z,992.89
2017-02-23T07:54:40.415Z,992.9
2017-02-23T07:55:21.162Z,992.91
2017-02-23T07:56:03.868Z,992.84
2017-02-23T07:56:49.128Z,992.93
2017-02-23T07:57:29.767Z,992.92
2017-02-23T07:58:11.442Z,992.86
2017-02-23T07:58:53.216Z,992.98
2017-02-23T07:59:40.635Z,992.97
2017-02-23T08:00:26.165Z,992.86
2017-02-23T08:01:11.645Z,992.85
2017-02-23T08:02:03.153Z,992.84
2017-02-23T08:02:55.691Z,992.91
2017-02-23T08:03:38.422Z,992.81
2017-02-23T08:04:20.049Z,992.86
2017-02-23T08:05:00.660Z,992.9
2017-02-23T08:05:41.336Z,992.85
2017-02-23T08:06:23.977Z,992.92
2017-02-23T08:07:04.607Z,992.8
2017-02-23T08:07:45.231Z,992.73
2017-02-23T08:08:32.447Z,992.78
2017-02-23T08:09:15.187Z,992.8
2017-02-23T08:10:01.662Z,992.78
2017-02-23T08:10:43.333Z,992.82
2017-02-23T08:11:23.990Z,992.86
2017-02-23T08:12:09.141Z,992.76
2017-02-23T08:12:49.807Z,992.73
2017-02-23T08:18:19.831Z,992.63
2017-02-23T08:19:00.379Z,992.72
2017-02-23T08:19:46.865Z,992.61
2017-02-23T08:20:27.537Z,992.59
2017-02-23T08:21:08.307Z,992.61
2017-02-23T08:21:55.514Z,992.52
2017-02-23T08:22:38.243Z,992.48
2017-02-23T08:23:18.889Z,992.45
2017-02-23T08:23:59.626Z,992.43
2017-02-23T08:24:40.532Z,992.45
2017-02-23T08:25:21.364Z,992.46
2017-02-23T08:26:03.443Z,992.44
2017-02-23T08:26:45.165Z,992.41
2017-02-23T08:27:25.957Z,992.43
2017-02-23T08:28:07.157Z,992.4
2017-02-23T08:28:49.550Z,992.32
2017-02-23T08:29:30.673Z,992.39
2017-02-23T08:30:11.891Z,992.36
2017-02-23T08:30:55.710Z,992.32
2017-02-23T08:31:37.117Z,992.33
2017-02-23T08:32:18.571Z,992.29
2017-02-23T08:33:00.541Z,992.26
2017-02-23T08:33:41.697Z,992.31
2017-02-23T08:34:22.510Z,992.32
2017-02-23T08:35:03.257Z,992.23
2017-02-23T08:35:44.057Z,992.28
2017-02-23T08:36:24.819Z,992.22
2017-02-23T08:37:05.516Z,992.26
2017-02-23T08:37:46.285Z,992.18
2017-02-23T08:38:27.079Z,992.19
2017-02-23T08:39:07.843Z,992.16
2017-02-23T08:39:48.637Z,992.08
2017-02-23T08:40:29.419Z,992.15
2017-02-23T08:41:10.570Z,992.02
2017-02-23T08:41:51.466Z,992.04
2017-02-23T08:42:32.385Z,992.03
2017-02-23T08:43:13.139Z,991.97
2017-02-23T08:43:53.795Z,992
2017-02-23T08:44:34.628Z,992.02
2017-02-23T08:45:15.397Z,991.97
2017-02-23T08:45:56.771Z,991.98
2017-02-23T08:46:37.581Z,991.93
2017-02-23T08:47:18.765Z,991.91
2017-02-23T08:47:59.806Z,991.93
2017-02-23T08:48:40.644Z,991.91
2017-02-23T08:49:21.336Z,991.95
2017-02-23T08:50:01.995Z,991.84
2017-02-23T08:50:42.906Z,991.88
2017-02-23T08:51:23.675Z,991.81
2017-02-23T08:52:04.499Z,991.87
2017-02-23T08:52:45.293Z,991.82
2017-02-23T08:53:25.944Z,991.71
2017-02-23T08:54:06.733Z,991.81
2017-02-23T08:54:47.511Z,991.79
2017-02-23T08:55:28.200Z,991.7
2017-02-23T08:56:08.909Z,991.65
2017-02-23T08:56:49.667Z,991.65
2017-02-23T08:57:30.494Z,991.69
2017-02-23T08:58:11.297Z,991.59
2017-02-23T08:58:52.110Z,991.67
2017-02-23T08:59:32.890Z,991.56
2017-02-23T09:00:13.773Z,991.62
2017-02-23T09:00:54.610Z,991.5
2017-02-23T09:01:35.441Z,991.53
2017-02-23T09:02:16.226Z,991.55
2017-02-23T09:02:56.848Z,991.48
2017-02-23T09:03:37.505Z,991.38
2017-02-23T09:04:18.159Z,991.45
2017-02-23T09:04:58.746Z,991.48
2017-02-23T09:05:39.372Z,991.46
2017-02-23T09:06:20.020Z,991.47
2017-02-23T09:07:00.671Z,991.41
2017-02-23T09:07:41.383Z,991.38
2017-02-23T09:08:21.946Z,991.37
2017-02-23T09:09:02.544Z,991.4
2017-02-23T09:09:43.170Z,991.33
2017-02-23T09:10:24.847Z,991.38
2017-02-23T09:11:05.426Z,991.3
2017-02-23T09:11:45.981Z,991.28
2017-02-23T09:12:26.556Z,991.28
2017-02-23T09:13:07.187Z,991.24
2017-02-23T09:13:47.898Z,991.31
2017-02-23T09:14:28.511Z,991.36
2017-02-23T09:15:09.113Z,991.33
2017-02-23T09:15:49.726Z,991.3
2017-02-23T09:16:30.336Z,991.28
2017-02-23T09:17:10.970Z,991.28
2017-02-23T09:17:51.536Z,991.33
2017-02-23T09:18:32.060Z,991.28
2017-02-23T09:19:12.648Z,991.23
2017-02-23T09:19:53.235Z,991.29
2017-02-23T09:20:33.903Z,991.36
2017-02-23T09:21:14.495Z,991.28
2017-02-23T09:21:55.182Z,991.33
2017-02-23T09:22:35.888Z,991.26
2017-02-23T09:23:16.534Z,991.26
2017-02-23T09:23:57.093Z,991.22
2017-02-23T09:24:37.677Z,991.22
2017-02-23T09:25:18.274Z,991.17
2017-02-23T09:25:58.888Z,991.19
2017-02-23T09:26:39.442Z,991.27
2017-02-23T09:27:19.966Z,991.23
2017-02-23T09:28:00.518Z,991.27
2017-02-23T09:28:41.173Z,991.1
2017-02-23T09:29:21.726Z,991.09
2017-02-23T09:30:02.286Z,991.12
2017-02-23T09:30:42.871Z,991.06
2017-02-23T09:31:23.510Z,991.1
2017-02-23T09:32:04.068Z,991.16
2017-02-23T09:32:44.597Z,991.02
2017-02-23T09:33:25.151Z,991.22
2017-02-23T09:34:06.786Z,991.06
2017-02-23T09:34:47.352Z,991.11
2017-02-23T09:35:28.115Z,991.04
2017-02-23T09:36:08.727Z,990.99
2017-02-23T09:36:49.305Z,990.97
2017-02-23T09:37:29.928Z,990.93
2017-02-23T09:38:12.506Z,991
2017-02-23T09:38:53.070Z,991.03
2017-02-23T09:39:33.631Z,990.98
2017-02-23T09:40:14.217Z,990.95
2017-02-23T09:40:54.815Z,991.03
2017-02-23T09:41:35.403Z,991.05
2017-02-23T09:42:15.996Z,991.05
2017-02-23T09:42:56.655Z,990.99
2017-02-23T09:43:38.273Z,991.04
2017-02-23T09:44:18.857Z,990.92
2017-02-23T09:44:59.523Z,990.95
2017-02-23T09:45:40.115Z,990.9
2017-02-23T09:46:20.662Z,990.94
2017-02-23T09:47:01.215Z,990.78
2017-02-23T09:47:41.829Z,990.82
2017-02-23T09:48:22.423Z,990.82
2017-02-23T09:49:03.001Z,990.79
2017-02-23T09:49:43.595Z,990.78
2017-02-23T09:50:24.167Z,990.77
2017-02-23T09:51:04.718Z,990.69
2017-02-23T09:51:45.307Z,990.71
2017-02-23T09:52:25.925Z,990.59
2017-02-23T09:53:06.548Z,990.65
2017-02-23T09:53:47.162Z,990.69
2017-02-23T09:54:27.895Z,990.67
2017-02-23T09:55:08.497Z,990.71
2017-02-23T09:55:49.164Z,990.65
2017-02-23T09:56:29.726Z,990.58
2017-02-23T09:57:10.293Z,990.53
2017-02-23T09:57:51.851Z,990.62
2017-02-23T09:58:32.500Z,990.62
2017-02-23T09:59:13.114Z,990.62
2017-02-23T09:59:53.665Z,990.5
2017-02-23T10:00:34.236Z,990.51
2017-02-23T10:01:14.813Z,990.56
2017-02-23T10:01:55.416Z,990.54
2017-02-23T10:02:36.007Z,990.54
2017-02-23T10:03:16.550Z,990.45
2017-02-23T10:03:57.166Z,990.47
2017-02-23T10:04:37.766Z,990.5
2017-02-23T10:05:18.367Z,990.52
2017-02-23T10:05:58.943Z,990.5
2017-02-23T10:06:39.534Z,990.52
2017-02-23T10:07:20.121Z,990.53
2017-02-23T10:08:00.735Z,990.51
2017-02-23T10:08:41.359Z,990.55
2017-02-23T10:09:21.975Z,990.49